sensor_id;sensor_type;location;lat;lon;timestamp;P1;durP1;ratioP1;P2;durP2;ratioP2
40717;SDS011;26405;51.850;-2.246;2023-09-19T00:02:07;14.35;;;3.20;;
40717;SDS011;26405;51.850;-2.246;2023-09-19T00:04:33;15.10;;;3.47;;
40717;SDS011;26405;51.850;-2.246;2023-09-19T00:06:59;15.75;;;3.50;;
40717;SDS011;26405;51.850;-2.246;2023-09-19T00:09:27;14.15;;;3.50;;
40717;SDS011;26405;51.850;-2.246;2023-09-19T00:11:52;13.80;;;3.47;;
40717;SDS011;26405;51.850;-2.246;2023-09-19T00:14:17;14.82;;;3.17;;
40717;SDS011;26405;51.850;-2.246;2023-09-19T00:16:43;14.52;;;3.20;;
40717;SDS011;26405;51.850;-2.246;2023-09-19T00:19:08;12.30;;;3.30;;
40717;SDS011;26405;51.850;-2.246;2023-09-19T00:21:34;14.23;;;3.50;;
40717;SDS011;26405;51.850;-2.246;2023-09-19T00:24:00;15.63;;;3.42;;
40717;SDS011;26405;51.850;-2.246;2023-09-19T00:26:26;11.25;;;3.10;;
40717;SDS011;26405;51.850;-2.246;2023-09-19T00:28:54;14.23;;;3.30;;
40717;SDS011;26405;51.850;-2.246;2023-09-19T00:31:19;14.77;;;3.40;;
40717;SDS011;26405;51.850;-2.246;2023-09-19T00:33:44;12.05;;;3.35;;
40717;SDS011;26405;51.850;-2.246;2023-09-19T00:36:10;17.13;;;3.47;;
40717;SDS011;26405;51.850;-2.246;2023-09-19T00:38:35;11.52;;;3.30;;
40717;SDS011;26405;51.850;-2.246;2023-09-19T00:41:00;14.80;;;3.08;;
40717;SDS011;26405;51.850;-2.246;2023-09-19T00:43:25;13.50;;;3.37;;
40717;SDS011;26405;51.850;-2.246;2023-09-19T00:45:53;12.88;;;3.10;;
40717;SDS011;26405;51.850;-2.246;2023-09-19T00:48:19;14.33;;;3.67;;
40717;SDS011;26405;51.850;-2.246;2023-09-19T00:50:45;11.53;;;3.37;;
40717;SDS011;26405;51.850;-2.246;2023-09-19T00:53:13;15.50;;;3.20;;
40717;SDS011;26405;51.850;-2.246;2023-09-19T00:55:39;12.32;;;3.33;;
40717;SDS011;26405;51.850;-2.246;2023-09-19T00:58:07;12.57;;;3.05;;
40717;SDS011;26405;51.850;-2.246;2023-09-19T01:00:33;14.95;;;3.65;;
40717;SDS011;26405;51.850;-2.246;2023-09-19T01:02:59;12.18;;;3.00;;
40717;SDS011;26405;51.850;-2.246;2023-09-19T01:07:51;12.80;;;3.27;;
40717;SDS011;26405;51.850;-2.246;2023-09-19T01:10:18;17.15;;;4.22;;
40717;SDS011;26405;51.850;-2.246;2023-09-19T01:18:52;13.50;;;3.30;;
40717;SDS011;26405;51.850;-2.246;2023-09-19T01:23:39;16.13;;;4.10;;
40717;SDS011;26405;51.850;-2.246;2023-09-19T01:31:44;14.65;;;3.50;;
40717;SDS011;26405;51.850;-2.246;2023-09-19T01:34:10;18.43;;;3.93;;
40717;SDS011;26405;51.850;-2.246;2023-09-19T01:36:36;14.82;;;3.85;;
40717;SDS011;26405;51.850;-2.246;2023-09-19T01:39:07;15.82;;;3.78;;
40717;SDS011;26405;51.850;-2.246;2023-09-19T01:41:44;12.70;;;3.40;;
40717;SDS011;26405;51.850;-2.246;2023-09-19T01:44:14;17.08;;;3.85;;
40717;SDS011;26405;51.850;-2.246;2023-09-19T01:46:43;12.55;;;3.47;;
40717;SDS011;26405;51.850;-2.246;2023-09-19T01:51:59;13.07;;;3.97;;
40717;SDS011;26405;51.850;-2.246;2023-09-19T01:54:33;15.02;;;3.70;;
40717;SDS011;26405;51.850;-2.246;2023-09-19T01:59:31;16.05;;;3.90;;
40717;SDS011;26405;51.850;-2.246;2023-09-19T02:01:58;16.30;;;4.07;;
40717;SDS011;26405;51.850;-2.246;2023-09-19T02:04:24;20.55;;;3.92;;
40717;SDS011;26405;51.850;-2.246;2023-09-19T02:09:17;16.05;;;3.92;;
40717;SDS011;26405;51.850;-2.246;2023-09-19T02:11:42;16.05;;;3.83;;
40717;SDS011;26405;51.850;-2.246;2023-09-19T02:14:07;16.98;;;3.90;;
40717;SDS011;26405;51.850;-2.246;2023-09-19T02:16:33;17.55;;;4.13;;
40717;SDS011;26405;51.850;-2.246;2023-09-19T02:18:59;19.80;;;4.35;;
40717;SDS011;26405;51.850;-2.246;2023-09-19T02:21:25;14.00;;;3.90;;
40717;SDS011;26405;51.850;-2.246;2023-09-19T02:23:50;14.75;;;3.83;;
40717;SDS011;26405;51.850;-2.246;2023-09-19T02:26:16;16.40;;;3.60;;
40717;SDS011;26405;51.850;-2.246;2023-09-19T02:28:43;15.88;;;3.67;;
40717;SDS011;26405;51.850;-2.246;2023-09-19T02:33:36;16.43;;;3.97;;
40717;SDS011;26405;51.850;-2.246;2023-09-19T02:36:02;15.68;;;3.42;;
40717;SDS011;26405;51.850;-2.246;2023-09-19T02:38:28;18.27;;;3.97;;
40717;SDS011;26405;51.850;-2.246;2023-09-19T02:40:54;16.80;;;3.45;;
40717;SDS011;26405;51.850;-2.246;2023-09-19T02:43:20;15.45;;;3.55;;
40717;SDS011;26405;51.850;-2.246;2023-09-19T02:45:46;12.68;;;3.72;;
40717;SDS011;26405;51.850;-2.246;2023-09-19T02:48:20;15.82;;;4.13;;
40717;SDS011;26405;51.850;-2.246;2023-09-19T02:50:46;15.68;;;3.63;;
40717;SDS011;26405;51.850;-2.246;2023-09-19T02:53:12;19.33;;;3.63;;
40717;SDS011;26405;51.850;-2.246;2023-09-19T02:55:38;18.03;;;3.87;;
40717;SDS011;26405;51.850;-2.246;2023-09-19T02:58:05;18.20;;;4.07;;
40717;SDS011;26405;51.850;-2.246;2023-09-19T03:00:33;15.27;;;3.45;;
40717;SDS011;26405;51.850;-2.246;2023-09-19T03:02:59;20.83;;;4.00;;
40717;SDS011;26405;51.850;-2.246;2023-09-19T03:05:24;16.05;;;4.00;;
40717;SDS011;26405;51.850;-2.246;2023-09-19T03:07:50;17.50;;;3.83;;
40717;SDS011;26405;51.850;-2.246;2023-09-19T03:10:19;16.23;;;3.90;;
40717;SDS011;26405;51.850;-2.246;2023-09-19T03:12:46;16.90;;;3.65;;
40717;SDS011;26405;51.850;-2.246;2023-09-19T03:15:11;16.20;;;3.55;;
40717;SDS011;26405;51.850;-2.246;2023-09-19T03:17:36;19.02;;;4.03;;
40717;SDS011;26405;51.850;-2.246;2023-09-19T03:20:02;16.10;;;3.67;;
40717;SDS011;26405;51.850;-2.246;2023-09-19T03:22:27;17.73;;;4.10;;
40717;SDS011;26405;51.850;-2.246;2023-09-19T03:24:53;19.75;;;4.35;;
40717;SDS011;26405;51.850;-2.246;2023-09-19T03:27:18;13.38;;;3.53;;
40717;SDS011;26405;51.850;-2.246;2023-09-19T03:29:45;17.15;;;3.53;;
40717;SDS011;26405;51.850;-2.246;2023-09-19T03:32:10;18.80;;;4.00;;
40717;SDS011;26405;51.850;-2.246;2023-09-19T03:34:36;15.77;;;3.55;;
40717;SDS011;26405;51.850;-2.246;2023-09-19T03:37:05;13.48;;;3.50;;
40717;SDS011;26405;51.850;-2.246;2023-09-19T03:39:31;16.00;;;3.70;;
40717;SDS011;26405;51.850;-2.246;2023-09-19T03:41:57;14.85;;;3.30;;
40717;SDS011;26405;51.850;-2.246;2023-09-19T03:44:22;15.60;;;3.58;;
40717;SDS011;26405;51.850;-2.246;2023-09-19T03:46:48;14.23;;;3.40;;
40717;SDS011;26405;51.850;-2.246;2023-09-19T03:49:13;15.27;;;3.38;;
40717;SDS011;26405;51.850;-2.246;2023-09-19T03:51:38;15.25;;;3.33;;
40717;SDS011;26405;51.850;-2.246;2023-09-19T03:54:06;17.25;;;3.95;;
40717;SDS011;26405;51.850;-2.246;2023-09-19T03:56:32;16.33;;;3.75;;
40717;SDS011;26405;51.850;-2.246;2023-09-19T03:58:57;13.23;;;3.15;;
40717;SDS011;26405;51.850;-2.246;2023-09-19T04:01:22;17.40;;;3.30;;
40717;SDS011;26405;51.850;-2.246;2023-09-19T04:03:48;15.27;;;3.83;;
40717;SDS011;26405;51.850;-2.246;2023-09-19T04:06:14;13.57;;;3.22;;
40717;SDS011;26405;51.850;-2.246;2023-09-19T04:08:39;11.40;;;3.30;;
40717;SDS011;26405;51.850;-2.246;2023-09-19T04:11:04;14.48;;;3.22;;
40717;SDS011;26405;51.850;-2.246;2023-09-19T04:13:30;15.30;;;3.13;;
40717;SDS011;26405;51.850;-2.246;2023-09-19T04:15:55;17.02;;;3.53;;
40717;SDS011;26405;51.850;-2.246;2023-09-19T04:18:20;17.10;;;3.47;;
40717;SDS011;26405;51.850;-2.246;2023-09-19T04:20:48;11.93;;;2.92;;
40717;SDS011;26405;51.850;-2.246;2023-09-19T04:23:13;12.48;;;2.90;;
40717;SDS011;26405;51.850;-2.246;2023-09-19T04:25:40;14.88;;;3.00;;
40717;SDS011;26405;51.850;-2.246;2023-09-19T04:28:05;12.57;;;3.42;;
40717;SDS011;26405;51.850;-2.246;2023-09-19T04:30:31;18.95;;;3.45;;
40717;SDS011;26405;51.850;-2.246;2023-09-19T04:32:57;10.10;;;2.80;;
40717;SDS011;26405;51.850;-2.246;2023-09-19T04:35:22;13.52;;;3.05;;
40717;SDS011;26405;51.850;-2.246;2023-09-19T04:37:47;11.95;;;3.10;;
40717;SDS011;26405;51.850;-2.246;2023-09-19T04:40:13;15.80;;;3.38;;
40717;SDS011;26405;51.850;-2.246;2023-09-19T04:42:45;14.65;;;3.08;;
40717;SDS011;26405;51.850;-2.246;2023-09-19T04:45:17;14.48;;;3.08;;
40717;SDS011;26405;51.850;-2.246;2023-09-19T04:47:45;15.32;;;3.10;;
40717;SDS011;26405;51.850;-2.246;2023-09-19T04:50:10;13.77;;;2.95;;
40717;SDS011;26405;51.850;-2.246;2023-09-19T04:52:37;12.57;;;3.22;;
40717;SDS011;26405;51.850;-2.246;2023-09-19T04:55:03;12.77;;;3.00;;
40717;SDS011;26405;51.850;-2.246;2023-09-19T04:57:28;12.52;;;3.10;;
40717;SDS011;26405;51.850;-2.246;2023-09-19T04:59:53;11.95;;;2.60;;
40717;SDS011;26405;51.850;-2.246;2023-09-19T05:02:19;11.07;;;2.63;;
40717;SDS011;26405;51.850;-2.246;2023-09-19T05:04:44;10.65;;;2.90;;
40717;SDS011;26405;51.850;-2.246;2023-09-19T05:07:09;8.35;;;2.30;;
40717;SDS011;26405;51.850;-2.246;2023-09-19T05:09:35;11.43;;;2.97;;
40717;SDS011;26405;51.850;-2.246;2023-09-19T05:12:02;7.55;;;2.50;;
40717;SDS011;26405;51.850;-2.246;2023-09-19T05:14:27;8.57;;;2.20;;
40717;SDS011;26405;51.850;-2.246;2023-09-19T05:16:53;5.40;;;2.10;;
40717;SDS011;26405;51.850;-2.246;2023-09-19T05:19:18;10.27;;;2.42;;
40717;SDS011;26405;51.850;-2.246;2023-09-19T05:21:44;7.15;;;2.40;;
40717;SDS011;26405;51.850;-2.246;2023-09-19T05:24:09;7.30;;;2.33;;
40717;SDS011;26405;51.850;-2.246;2023-09-19T05:26:36;9.45;;;2.70;;
40717;SDS011;26405;51.850;-2.246;2023-09-19T05:29:01;10.57;;;2.70;;
40717;SDS011;26405;51.850;-2.246;2023-09-19T05:33:53;6.25;;;2.30;;
40717;SDS011;26405;51.850;-2.246;2023-09-19T05:36:20;5.38;;;2.05;;
40717;SDS011;26405;51.850;-2.246;2023-09-19T05:38:45;9.73;;;2.42;;
40717;SDS011;26405;51.850;-2.246;2023-09-19T05:41:13;7.13;;;2.28;;
40717;SDS011;26405;51.850;-2.246;2023-09-19T05:43:39;9.93;;;2.67;;
40717;SDS011;26405;51.850;-2.246;2023-09-19T05:46:05;9.98;;;2.50;;
40717;SDS011;26405;51.850;-2.246;2023-09-19T05:48:31;7.30;;;2.35;;
40717;SDS011;26405;51.850;-2.246;2023-09-19T05:50:56;7.65;;;2.50;;
40717;SDS011;26405;51.850;-2.246;2023-09-19T05:53:21;8.05;;;2.50;;
40717;SDS011;26405;51.850;-2.246;2023-09-19T05:55:48;9.35;;;2.95;;
40717;SDS011;26405;51.850;-2.246;2023-09-19T05:58:14;13.50;;;3.40;;
40717;SDS011;26405;51.850;-2.246;2023-09-19T06:00:39;12.25;;;3.10;;
40717;SDS011;26405;51.850;-2.246;2023-09-19T06:03:07;15.18;;;3.20;;
40717;SDS011;26405;51.850;-2.246;2023-09-19T06:05:33;8.88;;;3.00;;
40717;SDS011;26405;51.850;-2.246;2023-09-19T06:07:58;13.90;;;3.22;;
40717;SDS011;26405;51.850;-2.246;2023-09-19T06:10:25;11.20;;;3.58;;
40717;SDS011;26405;51.850;-2.246;2023-09-19T06:12:51;11.88;;;3.33;;
40717;SDS011;26405;51.850;-2.246;2023-09-19T06:15:16;15.45;;;3.50;;
40717;SDS011;26405;51.850;-2.246;2023-09-19T06:17:47;8.40;;;3.00;;
40717;SDS011;26405;51.850;-2.246;2023-09-19T06:20:12;9.63;;;3.10;;
40717;SDS011;26405;51.850;-2.246;2023-09-19T06:22:39;8.40;;;2.78;;
40717;SDS011;26405;51.850;-2.246;2023-09-19T06:25:06;12.75;;;2.80;;
40717;SDS011;26405;51.850;-2.246;2023-09-19T06:27:32;10.35;;;2.80;;
40717;SDS011;26405;51.850;-2.246;2023-09-19T06:29:57;14.32;;;3.20;;
40717;SDS011;26405;51.850;-2.246;2023-09-19T06:32:28;8.95;;;3.00;;
40717;SDS011;26405;51.850;-2.246;2023-09-19T06:34:53;8.98;;;2.72;;
40717;SDS011;26405;51.850;-2.246;2023-09-19T06:37:20;10.82;;;3.30;;
40717;SDS011;26405;51.850;-2.246;2023-09-19T06:39:46;13.27;;;3.50;;
40717;SDS011;26405;51.850;-2.246;2023-09-19T06:42:11;14.52;;;3.33;;
40717;SDS011;26405;51.850;-2.246;2023-09-19T06:44:37;13.70;;;3.60;;
40717;SDS011;26405;51.850;-2.246;2023-09-19T06:47:02;15.63;;;3.45;;
40717;SDS011;26405;51.850;-2.246;2023-09-19T06:49:27;11.20;;;3.58;;
40717;SDS011;26405;51.850;-2.246;2023-09-19T06:51:54;15.20;;;4.40;;
40717;SDS011;26405;51.850;-2.246;2023-09-19T06:54:20;15.60;;;4.22;;
40717;SDS011;26405;51.850;-2.246;2023-09-19T06:56:45;14.23;;;3.88;;
40717;SDS011;26405;51.850;-2.246;2023-09-19T06:59:10;13.68;;;4.13;;
40717;SDS011;26405;51.850;-2.246;2023-09-19T07:01:39;14.88;;;4.40;;
40717;SDS011;26405;51.850;-2.246;2023-09-19T07:04:05;16.40;;;4.53;;
40717;SDS011;26405;51.850;-2.246;2023-09-19T07:06:30;12.88;;;3.80;;
40717;SDS011;26405;51.850;-2.246;2023-09-19T07:08:55;17.23;;;4.53;;
40717;SDS011;26405;51.850;-2.246;2023-09-19T07:11:20;18.00;;;4.20;;
40717;SDS011;26405;51.850;-2.246;2023-09-19T07:13:47;18.40;;;4.63;;
40717;SDS011;26405;51.850;-2.246;2023-09-19T07:16:12;17.45;;;4.75;;
40717;SDS011;26405;51.850;-2.246;2023-09-19T07:18:52;16.52;;;4.22;;
40717;SDS011;26405;51.850;-2.246;2023-09-19T07:21:17;15.55;;;3.83;;
40717;SDS011;26405;51.850;-2.246;2023-09-19T07:23:42;16.73;;;4.32;;
40717;SDS011;26405;51.850;-2.246;2023-09-19T07:26:25;15.25;;;4.28;;
40717;SDS011;26405;51.850;-2.246;2023-09-19T07:28:51;14.57;;;4.40;;
40717;SDS011;26405;51.850;-2.246;2023-09-19T07:31:17;19.85;;;4.00;;
40717;SDS011;26405;51.850;-2.246;2023-09-19T07:33:43;15.40;;;3.97;;
40717;SDS011;26405;51.850;-2.246;2023-09-19T07:36:09;16.08;;;4.30;;
40717;SDS011;26405;51.850;-2.246;2023-09-19T07:38:35;16.23;;;4.25;;
40717;SDS011;26405;51.850;-2.246;2023-09-19T07:41:01;16.75;;;4.65;;
40717;SDS011;26405;51.850;-2.246;2023-09-19T07:43:27;16.38;;;4.25;;
40717;SDS011;26405;51.850;-2.246;2023-09-19T07:45:52;18.75;;;4.75;;
40717;SDS011;26405;51.850;-2.246;2023-09-19T07:48:18;16.40;;;4.38;;
40717;SDS011;26405;51.850;-2.246;2023-09-19T07:50:43;14.75;;;4.18;;
40717;SDS011;26405;51.850;-2.246;2023-09-19T07:53:09;19.55;;;4.40;;
40717;SDS011;26405;51.850;-2.246;2023-09-19T07:55:34;12.20;;;4.53;;
40717;SDS011;26405;51.850;-2.246;2023-09-19T07:57:59;19.23;;;4.80;;
40717;SDS011;26405;51.850;-2.246;2023-09-19T08:00:25;13.27;;;3.72;;
40717;SDS011;26405;51.850;-2.246;2023-09-19T08:02:50;14.20;;;4.30;;
40717;SDS011;26405;51.850;-2.246;2023-09-19T08:05:17;16.60;;;4.65;;
40717;SDS011;26405;51.850;-2.246;2023-09-19T08:07:43;16.13;;;4.90;;
40717;SDS011;26405;51.850;-2.246;2023-09-19T08:10:13;13.43;;;4.18;;
40717;SDS011;26405;51.850;-2.246;2023-09-19T08:12:40;17.15;;;4.60;;
40717;SDS011;26405;51.850;-2.246;2023-09-19T08:15:18;13.52;;;4.40;;
40717;SDS011;26405;51.850;-2.246;2023-09-19T08:17:44;16.17;;;4.20;;
40717;SDS011;26405;51.850;-2.246;2023-09-19T08:20:10;15.57;;;4.53;;
40717;SDS011;26405;51.850;-2.246;2023-09-19T08:25:15;19.75;;;5.25;;
40717;SDS011;26405;51.850;-2.246;2023-09-19T08:27:42;15.25;;;4.47;;
40717;SDS011;26405;51.850;-2.246;2023-09-19T08:30:10;18.58;;;5.40;;
40717;SDS011;26405;51.850;-2.246;2023-09-19T08:32:36;17.65;;;5.40;;
40717;SDS011;26405;51.850;-2.246;2023-09-19T08:35:01;14.95;;;4.70;;
40717;SDS011;26405;51.850;-2.246;2023-09-19T08:37:26;18.90;;;5.50;;
40717;SDS011;26405;51.850;-2.246;2023-09-19T08:39:52;17.63;;;5.20;;
40717;SDS011;26405;51.850;-2.246;2023-09-19T08:42:17;16.98;;;4.90;;
40717;SDS011;26405;51.850;-2.246;2023-09-19T08:44:45;19.35;;;5.45;;
40717;SDS011;26405;51.850;-2.246;2023-09-19T08:47:10;19.73;;;5.50;;
40717;SDS011;26405;51.850;-2.246;2023-09-19T08:49:52;20.95;;;5.57;;
40717;SDS011;26405;51.850;-2.246;2023-09-19T08:52:28;18.58;;;5.60;;
40717;SDS011;26405;51.850;-2.246;2023-09-19T08:54:58;15.93;;;4.93;;
40717;SDS011;26405;51.850;-2.246;2023-09-19T08:57:27;17.73;;;4.90;;
40717;SDS011;26405;51.850;-2.246;2023-09-19T08:59:54;17.33;;;5.50;;
40717;SDS011;26405;51.850;-2.246;2023-09-19T09:02:20;15.77;;;4.45;;
40717;SDS011;26405;51.850;-2.246;2023-09-19T09:04:46;16.42;;;4.72;;
40717;SDS011;26405;51.850;-2.246;2023-09-19T09:07:14;16.38;;;4.40;;
40717;SDS011;26405;51.850;-2.246;2023-09-19T09:09:39;16.67;;;4.88;;
40717;SDS011;26405;51.850;-2.246;2023-09-19T09:12:12;17.08;;;4.55;;
40717;SDS011;26405;51.850;-2.246;2023-09-19T09:14:38;15.35;;;4.45;;
40717;SDS011;26405;51.850;-2.246;2023-09-19T09:17:03;14.30;;;4.80;;
40717;SDS011;26405;51.850;-2.246;2023-09-19T09:19:30;14.35;;;4.32;;
40717;SDS011;26405;51.850;-2.246;2023-09-19T09:24:29;14.13;;;4.22;;
40717;SDS011;26405;51.850;-2.246;2023-09-19T09:26:55;13.07;;;4.13;;
40717;SDS011;26405;51.850;-2.246;2023-09-19T09:29:40;17.42;;;4.30;;
40717;SDS011;26405;51.850;-2.246;2023-09-19T09:32:25;14.77;;;4.10;;
40717;SDS011;26405;51.850;-2.246;2023-09-19T09:34:52;14.40;;;4.00;;
40717;SDS011;26405;51.850;-2.246;2023-09-19T09:37:18;17.92;;;5.43;;
40717;SDS011;26405;51.850;-2.246;2023-09-19T09:39:54;15.90;;;4.03;;
40717;SDS011;26405;51.850;-2.246;2023-09-19T09:42:34;14.80;;;4.50;;
40717;SDS011;26405;51.850;-2.246;2023-09-19T09:47:42;12.57;;;3.88;;
40717;SDS011;26405;51.850;-2.246;2023-09-19T09:50:07;12.35;;;3.75;;
40717;SDS011;26405;51.850;-2.246;2023-09-19T09:52:45;12.63;;;3.60;;
40717;SDS011;26405;51.850;-2.246;2023-09-19T09:55:11;14.73;;;3.80;;
40717;SDS011;26405;51.850;-2.246;2023-09-19T09:57:37;9.67;;;3.23;;
40717;SDS011;26405;51.850;-2.246;2023-09-19T10:00:06;11.02;;;3.28;;
40717;SDS011;26405;51.850;-2.246;2023-09-19T10:02:37;12.25;;;3.75;;
40717;SDS011;26405;51.850;-2.246;2023-09-19T10:05:18;11.43;;;3.72;;
40717;SDS011;26405;51.850;-2.246;2023-09-19T10:07:53;9.68;;;3.10;;
40717;SDS011;26405;51.850;-2.246;2023-09-19T10:10:31;12.02;;;3.40;;
40717;SDS011;26405;51.850;-2.246;2023-09-19T10:13:19;11.13;;;3.60;;
40717;SDS011;26405;51.850;-2.246;2023-09-19T10:15:50;9.38;;;3.10;;
40717;SDS011;26405;51.850;-2.246;2023-09-19T10:18:24;11.45;;;3.55;;
40717;SDS011;26405;51.850;-2.246;2023-09-19T10:20:50;10.20;;;3.40;;
40717;SDS011;26405;51.850;-2.246;2023-09-19T10:23:16;13.18;;;3.50;;
40717;SDS011;26405;51.850;-2.246;2023-09-19T10:25:47;10.30;;;3.20;;
40717;SDS011;26405;51.850;-2.246;2023-09-19T10:28:13;9.18;;;3.15;;
40717;SDS011;26405;51.850;-2.246;2023-09-19T10:30:42;8.18;;;3.05;;
40717;SDS011;26405;51.850;-2.246;2023-09-19T10:33:19;8.85;;;2.70;;
40717;SDS011;26405;51.850;-2.246;2023-09-19T10:35:49;12.40;;;2.97;;
40717;SDS011;26405;51.850;-2.246;2023-09-19T10:38:19;7.97;;;2.97;;
40717;SDS011;26405;51.850;-2.246;2023-09-19T10:40:48;8.95;;;3.00;;
40717;SDS011;26405;51.850;-2.246;2023-09-19T10:43:16;10.43;;;2.97;;
40717;SDS011;26405;51.850;-2.246;2023-09-19T10:45:44;9.07;;;3.00;;
40717;SDS011;26405;51.850;-2.246;2023-09-19T10:48:11;7.50;;;2.67;;
40717;SDS011;26405;51.850;-2.246;2023-09-19T10:50:50;9.88;;;2.67;;
40717;SDS011;26405;51.850;-2.246;2023-09-19T10:53:17;8.02;;;2.38;;
40717;SDS011;26405;51.850;-2.246;2023-09-19T10:55:52;8.37;;;2.57;;
40717;SDS011;26405;51.850;-2.246;2023-09-19T10:58:31;8.10;;;2.67;;
40717;SDS011;26405;51.850;-2.246;2023-09-19T11:01:02;10.60;;;2.97;;
40717;SDS011;26405;51.850;-2.246;2023-09-19T11:03:43;3.10;;;1.90;;
40717;SDS011;26405;51.850;-2.246;2023-09-19T11:06:13;4.97;;;2.40;;
40717;SDS011;26405;51.850;-2.246;2023-09-19T11:11:44;7.20;;;2.22;;
40717;SDS011;26405;51.850;-2.246;2023-09-19T11:22:25;3.35;;;1.77;;
40717;SDS011;26405;51.850;-2.246;2023-09-19T11:24:51;3.33;;;1.77;;
40717;SDS011;26405;51.850;-2.246;2023-09-19T11:27:16;3.22;;;2.17;;
40717;SDS011;26405;51.850;-2.246;2023-09-19T11:29:43;2.80;;;1.90;;
40717;SDS011;26405;51.850;-2.246;2023-09-19T11:32:08;5.22;;;2.10;;
40717;SDS011;26405;51.850;-2.246;2023-09-19T11:39:36;5.10;;;2.00;;
40717;SDS011;26405;51.850;-2.246;2023-09-19T11:42:08;6.78;;;2.20;;
40717;SDS011;26405;51.850;-2.246;2023-09-19T11:44:48;6.10;;;2.00;;
40717;SDS011;26405;51.850;-2.246;2023-09-19T11:47:16;4.32;;;2.20;;
40717;SDS011;26405;51.850;-2.246;2023-09-19T11:49:43;2.55;;;1.80;;
40717;SDS011;26405;51.850;-2.246;2023-09-19T11:52:09;5.97;;;2.00;;
40717;SDS011;26405;51.850;-2.246;2023-09-19T11:54:35;3.35;;;2.00;;
40717;SDS011;26405;51.850;-2.246;2023-09-19T11:57:02;7.00;;;2.10;;
40717;SDS011;26405;51.850;-2.246;2023-09-19T11:59:28;7.30;;;2.20;;
40717;SDS011;26405;51.850;-2.246;2023-09-19T12:01:55;3.40;;;1.73;;
40717;SDS011;26405;51.850;-2.246;2023-09-19T12:04:39;5.25;;;2.20;;
40717;SDS011;26405;51.850;-2.246;2023-09-19T12:07:08;6.45;;;1.90;;
40717;SDS011;26405;51.850;-2.246;2023-09-19T12:09:39;6.28;;;2.28;;
40717;SDS011;26405;51.850;-2.246;2023-09-19T12:12:07;5.88;;;2.00;;
40717;SDS011;26405;51.850;-2.246;2023-09-19T12:14:34;6.85;;;2.47;;
40717;SDS011;26405;51.850;-2.246;2023-09-19T12:17:00;7.13;;;2.42;;
40717;SDS011;26405;51.850;-2.246;2023-09-19T12:19:26;9.90;;;2.60;;
40717;SDS011;26405;51.850;-2.246;2023-09-19T12:24:18;10.68;;;3.15;;
40717;SDS011;26405;51.850;-2.246;2023-09-19T12:26:45;13.57;;;3.50;;
40717;SDS011;26405;51.850;-2.246;2023-09-19T12:29:16;11.02;;;3.40;;
40717;SDS011;26405;51.850;-2.246;2023-09-19T12:31:48;15.15;;;3.58;;
40717;SDS011;26405;51.850;-2.246;2023-09-19T12:34:25;17.00;;;3.85;;
40717;SDS011;26405;51.850;-2.246;2023-09-19T12:40:02;20.25;;;4.45;;
40717;SDS011;26405;51.850;-2.246;2023-09-19T12:42:39;14.68;;;3.97;;
40717;SDS011;26405;51.850;-2.246;2023-09-19T12:47:34;13.88;;;4.13;;
40717;SDS011;26405;51.850;-2.246;2023-09-19T12:50:12;16.55;;;4.47;;
40717;SDS011;26405;51.850;-2.246;2023-09-19T12:52:45;18.20;;;3.95;;
40717;SDS011;26405;51.850;-2.246;2023-09-19T13:00:30;11.85;;;3.60;;
40717;SDS011;26405;51.850;-2.246;2023-09-19T13:03:11;17.05;;;4.10;;
40717;SDS011;26405;51.850;-2.246;2023-09-19T13:05:47;12.52;;;3.35;;
40717;SDS011;26405;51.850;-2.246;2023-09-19T13:08:20;12.27;;;3.20;;
40717;SDS011;26405;51.850;-2.246;2023-09-19T13:13:26;14.32;;;3.72;;
40717;SDS011;26405;51.850;-2.246;2023-09-19T13:15:53;16.25;;;4.05;;
40717;SDS011;26405;51.850;-2.246;2023-09-19T13:18:18;15.47;;;4.07;;
40717;SDS011;26405;51.850;-2.246;2023-09-19T13:21:05;17.65;;;4.07;;
40717;SDS011;26405;51.850;-2.246;2023-09-19T13:23:30;14.50;;;3.67;;
40717;SDS011;26405;51.850;-2.246;2023-09-19T13:25:56;13.43;;;3.90;;
40717;SDS011;26405;51.850;-2.246;2023-09-19T13:28:21;12.90;;;3.87;;
40717;SDS011;26405;51.850;-2.246;2023-09-19T13:30:46;13.63;;;3.40;;
40717;SDS011;26405;51.850;-2.246;2023-09-19T13:33:13;14.65;;;3.60;;
40717;SDS011;26405;51.850;-2.246;2023-09-19T13:35:45;12.82;;;3.90;;
40717;SDS011;26405;51.850;-2.246;2023-09-19T13:38:11;12.50;;;3.37;;
40717;SDS011;26405;51.850;-2.246;2023-09-19T13:40:40;13.60;;;3.57;;
40717;SDS011;26405;51.850;-2.246;2023-09-19T13:43:09;14.75;;;3.85;;
40717;SDS011;26405;51.850;-2.246;2023-09-19T13:45:34;15.13;;;3.80;;
40717;SDS011;26405;51.850;-2.246;2023-09-19T13:47:59;18.63;;;4.50;;
40717;SDS011;26405;51.850;-2.246;2023-09-19T13:50:24;17.10;;;4.27;;
40717;SDS011;26405;51.850;-2.246;2023-09-19T13:55:17;19.17;;;4.32;;
40717;SDS011;26405;51.850;-2.246;2023-09-19T13:57:45;16.60;;;4.20;;
40717;SDS011;26405;51.850;-2.246;2023-09-19T14:00:11;20.90;;;4.37;;
40717;SDS011;26405;51.850;-2.246;2023-09-19T14:02:39;17.38;;;3.85;;
40717;SDS011;26405;51.850;-2.246;2023-09-19T14:05:05;17.60;;;3.93;;
40717;SDS011;26405;51.850;-2.246;2023-09-19T14:07:30;16.23;;;4.10;;
40717;SDS011;26405;51.850;-2.246;2023-09-19T14:09:55;13.73;;;3.77;;
40717;SDS011;26405;51.850;-2.246;2023-09-19T14:12:20;14.37;;;4.10;;
40717;SDS011;26405;51.850;-2.246;2023-09-19T14:14:46;14.77;;;3.90;;
40717;SDS011;26405;51.850;-2.246;2023-09-19T14:17:11;18.30;;;3.80;;
40717;SDS011;26405;51.850;-2.246;2023-09-19T14:19:36;16.77;;;3.87;;
40717;SDS011;26405;51.850;-2.246;2023-09-19T14:22:02;14.00;;;4.30;;
40717;SDS011;26405;51.850;-2.246;2023-09-19T14:24:32;13.18;;;3.45;;
40717;SDS011;26405;51.850;-2.246;2023-09-19T14:26:57;17.70;;;3.97;;
40717;SDS011;26405;51.850;-2.246;2023-09-19T14:29:24;12.23;;;3.13;;
40717;SDS011;26405;51.850;-2.246;2023-09-19T14:31:49;13.00;;;3.80;;
40717;SDS011;26405;51.850;-2.246;2023-09-19T14:34:16;9.23;;;3.50;;
40717;SDS011;26405;51.850;-2.246;2023-09-19T14:36:42;16.30;;;3.97;;
40717;SDS011;26405;51.850;-2.246;2023-09-19T14:39:07;15.70;;;4.07;;
40717;SDS011;26405;51.850;-2.246;2023-09-19T14:41:35;18.15;;;3.97;;
40717;SDS011;26405;51.850;-2.246;2023-09-19T14:44:02;10.60;;;3.30;;
40717;SDS011;26405;51.850;-2.246;2023-09-19T14:46:27;19.33;;;4.07;;
40717;SDS011;26405;51.850;-2.246;2023-09-19T14:48:53;14.73;;;4.28;;
40717;SDS011;26405;51.850;-2.246;2023-09-19T14:51:18;15.67;;;3.80;;
40717;SDS011;26405;51.850;-2.246;2023-09-19T14:53:44;14.57;;;3.80;;
40717;SDS011;26405;51.850;-2.246;2023-09-19T14:56:10;14.23;;;3.67;;
40717;SDS011;26405;51.850;-2.246;2023-09-19T14:58:36;16.57;;;4.20;;
40717;SDS011;26405;51.850;-2.246;2023-09-19T15:03:29;11.60;;;3.10;;
40717;SDS011;26405;51.850;-2.246;2023-09-19T15:06:01;12.25;;;2.85;;
40717;SDS011;26405;51.850;-2.246;2023-09-19T15:08:27;11.02;;;2.85;;
40717;SDS011;26405;51.850;-2.246;2023-09-19T15:10:52;8.47;;;2.40;;
40717;SDS011;26405;51.850;-2.246;2023-09-19T15:13:18;9.18;;;2.85;;
40717;SDS011;26405;51.850;-2.246;2023-09-19T15:15:43;9.80;;;2.50;;
40717;SDS011;26405;51.850;-2.246;2023-09-19T15:18:10;8.20;;;2.90;;
40717;SDS011;26405;51.850;-2.246;2023-09-19T15:20:42;11.25;;;2.58;;
40717;SDS011;26405;51.850;-2.246;2023-09-19T15:23:07;9.10;;;2.85;;
40717;SDS011;26405;51.850;-2.246;2023-09-19T15:25:32;5.97;;;2.00;;
40717;SDS011;26405;51.850;-2.246;2023-09-19T15:28:00;10.07;;;2.80;;
40717;SDS011;26405;51.850;-2.246;2023-09-19T15:30:32;8.82;;;2.67;;
40717;SDS011;26405;51.850;-2.246;2023-09-19T15:33:01;7.40;;;2.33;;
40717;SDS011;26405;51.850;-2.246;2023-09-19T15:35:26;12.83;;;3.47;;
40717;SDS011;26405;51.850;-2.246;2023-09-19T15:37:52;13.37;;;3.43;;
40717;SDS011;26405;51.850;-2.246;2023-09-19T15:40:18;10.37;;;3.17;;